Time;durP1;ratioP1;P1;durP2;ratioP2;P2;SDS_P1;SDS_P2;PMS_P1;PMS_P2;Temp;Humidity;BMP_temperature;BMP_pressure;BME280_temperature;BME280_humidity;BME280_pressure;Samples;Min_cycle;Max_cycle;Signal;HPM_P1;HPM_P2
2022/02/05 00:00:03;;;;;;;1.90;1.40;;;;;;;4.92;98.42;152626.09;5079902;28;20923;-77
2022/02/05 00:02:31;;;;;;;1.60;1.20;;;;;;;4.93;100.00;152629.94;5069438;28;20464;-77
2022/02/05 00:05:07;;;;;;;2.10;1.63;;;;;;;4.93;100.00;152629.94;5087152;28;20563;-77
2022/02/05 00:07:50;;;;;;;1.87;1.30;;;;;;;4.87;99.32;152613.22;5069110;28;20451;-77
2022/02/05 00:10:57;;;;;;;2.60;1.50;;;;;;;4.86;99.11;152611.91;5082560;28;20460;-77
2022/02/05 00:42:41;;;;;;;2.03;1.40;;;;;;;4.23;100.00;152449.59;5054185;28;20444;-76
2022/02/05 00:45:17;;;;;;;2.93;1.60;;;;;;;4.21;97.10;152444.41;5086438;28;20504;-76
2022/02/05 00:47:54;;;;;;;1.77;1.23;;;;;;;4.13;96.54;152425.09;5068158;28;20449;-76
2022/02/05 00:50:33;;;;;;;2.30;1.57;;;;;;;4.06;92.72;152405.78;5090216;28;20448;-76
2022/02/05 00:53:14;;;;;;;4.60;1.57;;;;;;;3.98;95.64;152385.16;5069810;28;20448;-76
2022/02/05 00:55:56;;;;;;;1.30;1.17;;;;;;;3.90;95.14;152365.84;5086806;28;20451;-76
2022/02/05 00:58:31;;;;;;;1.40;1.20;;;;;;;3.71;92.78;152315.69;5098572;28;20437;-76
2022/02/05 01:01:08;;;;;;;1.77;1.60;;;;;;;3.66;97.19;152305.34;5087737;28;20988;-76
2022/02/05 01:03:44;;;;;;;1.70;1.20;;;;;;;3.63;94.75;152297.63;5084773;28;20433;-76
2022/02/05 01:06:19;;;;;;;1.77;1.43;;;;;;;3.55;96.04;152277.03;5086265;28;20468;-76
2022/02/05 01:08:56;;;;;;;3.07;1.50;;;;;;;3.49;95.85;152260.31;5085210;28;20870;-76
2022/02/05 01:11:32;;;;;;;1.80;1.50;;;;;;;3.49;93.66;152261.59;5069150;28;20456;-76
2022/02/05 01:14:10;;;;;;;1.50;1.17;;;;;;;3.44;94.00;152248.69;5084077;28;20448;-76
2022/02/05 01:16:53;;;;;;;2.33;1.23;;;;;;;3.42;93.49;152243.56;5068957;28;20452;-76
2022/02/05 01:20:00;;;;;;;4.27;1.43;;;;;;;3.30;93.11;152211.41;5105657;28;20473;-76
2022/02/05 01:22:39;;;;;;;1.70;1.03;;;;;;;3.25;90.36;152198.53;5089105;28;20436;-76
2022/02/05 01:25:21;;;;;;;3.10;1.20;;;;;;;3.22;91.93;152192.09;5086950;28;20465;-76
2022/02/05 01:28:01;;;;;;;1.60;1.27;;;;;;;3.15;92.14;152174.03;5084649;28;20932;-76
2022/02/05 01:30:41;;;;;;;2.23;1.10;;;;;;;3.08;90.29;152156.06;5088833;28;20954;-76
2022/02/05 01:33:36;;;;;;;2.40;1.10;;;;;;;3.04;90.42;152147.03;5081438;28;20444;-76
2022/02/05 01:48:47;;;;;;;2.60;1.30;;;;;;;3.01;93.44;152138.06;5087024;28;20616;-76
2022/02/05 01:51:38;;;;;;;3.80;1.40;;;;;;;2.84;92.85;152094.28;5087860;28;20443;-76
2022/02/05 01:54:32;;;;;;;3.60;1.50;;;;;;;2.77;92.32;152077.59;5107004;28;20483;-76
2022/02/05 01:57:13;;;;;;;2.10;1.33;;;;;;;2.77;93.50;152077.59;5113776;27;20439;-76
2022/02/05 02:04:45;;;;;;;2.23;1.10;;;;;;;2.72;93.89;152064.75;5107099;28;20450;-76
2022/02/05 02:05:52;;;;;;;2.03;1.20;;;;;;;2.64;94.00;152042.84;5109184;28;21488;-76
2022/02/05 02:11:33;;;;;;;2.10;1.40;;;;;;;2.56;94.08;152022.28;5089908;28;20480;-75
2022/02/05 02:14:28;;;;;;;1.70;1.00;;;;;;;2.51;93.58;152010.72;5103648;28;20537;-75
2022/02/05 02:20:27;;;;;;;1.90;1.20;;;;;;;2.45;94.88;151996.56;5111535;28;20435;-75
2022/02/05 02:23:16;;;;;;;1.67;1.23;;;;;;;2.41;96.48;151986.25;5091049;28;20960;-75
2022/02/05 02:26:00;;;;;;;2.23;1.33;;;;;;;2.38;96.06;151977.28;5121354;27;20478;-75
2022/02/05 02:28:47;;;;;;;3.30;1.40;;;;;;;2.32;95.48;151963.13;5098383;28;20961;-75
2022/02/05 02:31:27;;;;;;;2.00;1.40;;;;;;;2.23;94.15;151939.97;5089286;28;20447;-76
2022/02/05 02:34:06;;;;;;;1.93;1.47;;;;;;;2.27;96.78;151950.28;5093069;28;20477;-75
2022/02/05 02:36:48;;;;;;;2.70;1.40;;;;;;;2.28;95.56;151952.81;5109183;28;20434;-75
2022/02/05 02:39:29;;;;;;;2.47;1.20;;;;;;;2.24;95.17;151941.25;5107994;28;20495;-75
2022/02/05 02:42:09;;;;;;;1.80;1.40;;;;;;;2.23;95.54;151939.97;5090777;28;20544;-75
2022/02/05 02:44:45;;;;;;;2.23;1.50;;;;;;;2.23;94.54;151939.97;5093734;28;20447;-76
2022/02/05 02:47:20;;;;;;;2.20;1.20;;;;;;;2.18;94.91;151925.81;5107510;28;20467;-75
2022/02/05 02:50:01;;;;;;;2.60;2.00;;;;;;;2.22;96.42;151936.13;5109804;27;20463;-75
2022/02/05 02:58:28;;;;;;;2.87;1.40;;;;;;;2.07;94.88;151898.81;5086634;28;20782;-75
2022/02/05 03:01:03;;;;;;;1.93;1.57;;;;;;;2.02;96.87;151885.97;5106404;28;20449;-76
2022/02/05 03:03:39;;;;;;;3.57;1.73;;;;;;;2.08;96.36;151901.41;5107899;28;20816;-75
2022/02/05 03:06:15;;;;;;;2.83;1.60;;;;;;;2.05;94.68;151893.69;5108324;28;20469;-75
2022/02/05 03:08:50;;;;;;;3.00;1.23;;;;;;;2.03;96.94;151888.56;5104312;27;20532;-76
2022/02/05 03:11:27;;;;;;;2.33;1.67;;;;;;;1.94;96.02;151865.41;5105277;28;20457;-76
2022/02/05 03:14:03;;;;;;;3.00;1.90;;;;;;;1.96;96.09;151870.53;5103639;28;20446;-75
2022/02/05 03:16:46;;;;;;;5.63;1.30;;;;;;;1.97;96.29;151873.13;5107975;28;20448;-76
2022/02/05 03:19:21;;;;;;;3.63;1.40;;;;;;;1.89;96.88;151852.56;5085289;28;20457;-76
2022/02/05 03:21:56;;;;;;;2.27;1.50;;;;;;;1.82;95.03;151834.56;5109845;27;20454;-75
2022/02/05 03:24:32;;;;;;;2.27;1.60;;;;;;;1.90;96.69;151855.16;5089282;28;20441;-75
2022/02/05 03:27:11;;;;;;;2.17;1.57;;;;;;;1.81;96.43;151832.00;5089413;28;20469;-75
2022/02/05 03:29:48;;;;;;;4.17;1.80;;;;;;;1.78;96.82;151824.25;5085711;28;20440;-75
2022/02/05 03:32:25;;;;;;;2.33;1.53;;;;;;;1.77;94.87;151822.97;5108141;28;20473;-76
2022/02/05 03:35:00;;;;;;;2.80;1.50;;;;;;;1.76;98.07;151820.44;5091430;28;20457;-76
2022/02/05 03:37:36;;;;;;;2.33;1.80;;;;;;;1.77;97.57;151821.72;5082022;28;20935;-76
2022/02/05 03:40:12;;;;;;;2.80;1.80;;;;;;;1.76;95.84;151820.44;5087080;28;20454;-75
2022/02/05 03:42:49;;;;;;;3.17;2.00;;;;;;;1.81;96.52;151832.00;5086442;28;20474;-75
2022/02/05 03:45:24;;;;;;;3.40;1.77;;;;;;;1.71;96.43;151806.28;5069844;28;20552;-75
2022/02/05 03:48:00;;;;;;;5.23;2.03;;;;;;;1.78;97.18;151825.56;5083214;28;20431;-75
2022/02/05 03:50:35;;;;;;;4.10;2.50;;;;;;;1.80;96.97;151829.44;5086218;28;20453;-75
2022/02/05 03:53:11;;;;;;;5.70;2.47;;;;;;;1.72;96.38;151808.88;5068221;28;20824;-75
2022/02/05 03:55:46;;;;;;;4.17;2.67;;;;;;;1.76;95.55;151819.13;5088735;28;20438;-75
2022/02/05 03:58:23;;;;;;;3.40;2.03;;;;;;;1.71;95.98;151807.59;5071290;28;20446;-75
2022/02/05 04:00:59;;;;;;;4.03;1.73;;;;;;;1.68;95.52;151798.56;5087691;28;20453;-75
2022/02/05 04:03:34;;;;;;;3.53;2.00;;;;;;;1.61;95.32;151781.91;5085188;28;20466;-76
2022/02/05 04:06:10;;;;;;;5.20;1.97;;;;;;;1.62;96.75;151783.13;5075981;28;20477;-75
2022/02/05 04:08:47;;;;;;;6.03;2.37;;;;;;;1.62;96.23;151784.44;5063167;28;20439;-76
2022/02/05 04:11:34;;;;;;;2.60;2.13;;;;;;;1.61;95.80;151780.59;5079831;28;20451;-75
2022/02/05 04:17:05;;;;;;;2.93;1.87;;;;;;;1.62;97.24;151784.44;5087722;28;20444;-75
2022/02/05 04:19:40;;;;;;;3.90;2.03;;;;;;;1.61;95.35;151780.59;5084593;28;20446;-75
2022/02/05 04:22:16;;;;;;;2.67;2.00;;;;;;;1.53;94.72;151760.03;5070461;28;20678;-75
2022/02/05 04:24:51;;;;;;;1.80;1.60;;;;;;;1.54;95.13;151763.88;5086781;28;20445;-75
2022/02/05 04:27:28;;;;;;;2.70;2.23;;;;;;;1.53;95.62;151760.03;5087201;28;20470;-75
2022/02/05 04:30:07;;;;;;;5.37;2.23;;;;;;;1.53;96.06;151760.03;5085464;28;20471;-75
2022/02/05 04:32:42;;;;;;;3.63;1.90;;;;;;;1.52;96.31;151758.75;5085727;28;20447;-75
2022/02/05 04:35:18;;;;;;;3.10;2.57;;;;;;;1.55;96.26;151765.16;5098944;28;20473;-75
2022/02/05 04:37:56;;;;;;;4.13;2.40;;;;;;;1.57;95.37;151770.28;5085031;28;20433;-75
2022/02/05 04:40:37;;;;;;;6.50;2.30;;;;;;;1.63;95.49;151787.03;5108276;28;20453;-75
2022/02/05 04:43:25;;;;;;;3.40;2.10;;;;;;;1.66;95.50;151793.44;5122239;27;20531;-75
2022/02/05 04:46:29;;;;;;;4.43;2.53;;;;;;;1.70;96.17;151803.69;5105012;28;20895;-75
2022/02/05 04:49:27;;;;;;;2.93;2.13;;;;;;;1.69;95.49;151801.16;5086328;28;20449;-75
2022/02/05 04:52:26;;;;;;;2.80;2.50;;;;;;;1.71;96.45;151807.59;5114774;27;20450;-75
2022/02/05 04:58:02;;;;;;;2.50;2.00;;;;;;;1.73;97.55;151811.41;5087965;28;20434;-75
2022/02/05 05:00:59;;;;;;;3.90;2.60;;;;;;;1.73;96.10;151812.72;5106226;28;20453;-75
2022/02/05 05:03:50;;;;;;;2.43;2.23;;;;;;;1.74;97.15;151815.31;5082708;28;20449;-75
2022/02/05 05:06:34;;;;;;;2.83;2.10;;;;;;;1.74;96.46;151814.00;5112619;28;20530;-76
2022/02/05 05:09:17;;;;;;;3.57;2.60;;;;;;;1.74;96.56;151815.31;5108720;28;21023;-75
2022/02/05 05:12:19;;;;;;;3.10;2.50;;;;;;;1.76;96.55;151820.44;5109885;28;21041;-75
2022/02/05 05:15:24;;;;;;;4.50;2.80;;;;;;;1.81;96.79;151833.28;5094794;28;20445;-75
2022/02/05 05:21:02;;;;;;;2.80;2.17;;;;;;;1.86;97.47;151844.84;5108714;28;20450;-75
2022/02/05 05:23:38;;;;;;;3.87;2.93;;;;;;;1.89;95.86;151852.56;5089821;28;20443;-75
2022/02/05 05:26:13;;;;;;;3.60;2.50;;;;;;;1.88;97.04;151848.72;5100709;28;20445;-75
2022/02/05 05:28:48;;;;;;;4.83;2.37;;;;;;;1.87;95.28;151846.13;5104601;28;20874;-75
2022/02/05 05:31:24;;;;;;;3.60;2.73;;;;;;;1.93;96.40;151862.88;5111321;28;20936;-75
2022/02/05 05:34:00;;;;;;;6.33;3.00;;;;;;;1.93;96.02;151861.56;5104196;28;20470;-75
2022/02/05 05:36:37;;;;;;;3.30;2.57;;;;;;;1.92;97.91;151858.97;5089847;28;20547;-75
2022/02/05 05:39:14;;;;;;;4.87;2.43;;;;;;;1.96;96.47;151869.28;5089539;28;20454;-75
2022/02/05 05:41:49;;;;;;;5.43;2.83;;;;;;;1.99;95.78;151876.97;5088576;28;20442;-75
2022/02/05 05:44:53;;;;;;;3.60;2.70;;;;;;;1.95;95.84;151868.00;5088507;28;20459;-75
2022/02/05 05:47:48;;;;;;;4.17;2.83;;;;;;;1.94;95.76;151864.09;5090902;28;20472;-75
2022/02/05 05:53:28;;;;;;;4.43;3.07;;;;;;;1.98;95.77;151875.72;5067449;28;20962;-75
2022/02/05 05:56:04;;;;;;;3.73;2.60;;;;;;;1.99;95.65;151876.97;5078984;28;20439;-75
2022/02/05 05:58:40;;;;;;;4.00;2.57;;;;;;;2.01;95.16;151882.13;5074136;28;20451;-75
2022/02/05 06:01:15;;;;;;;5.40;2.87;;;;;;;1.97;95.22;151873.13;5088573;28;20447;-75
2022/02/05 06:03:51;;;;;;;2.97;2.40;;;;;;;1.98;96.54;151874.41;5083862;28;20442;-75
2022/02/05 06:06:27;;;;;;;4.57;2.70;;;;;;;2.05;95.99;151893.69;5072221;28;20451;-75
2022/02/05 06:09:04;;;;;;;4.00;2.77;;;;;;;2.05;96.27;151892.41;5074937;28;21057;-75
2022/02/05 06:11:39;;;;;;;3.77;2.70;;;;;;;2.03;95.10;151887.25;5068403;28;20545;-75
2022/02/05 06:14:19;;;;;;;3.77;2.63;;;;;;;2.07;95.45;151898.81;5089329;28;20451;-75
2022/02/05 06:17:00;;;;;;;6.97;2.83;;;;;;;2.06;95.53;151895.00;5086540;28;20474;-75
2022/02/05 06:19:36;;;;;;;3.77;3.03;;;;;;;2.07;97.28;151898.81;5088059;28;20488;-75
2022/02/05 06:22:13;;;;;;;4.00;2.53;;;;;;;2.08;96.14;151900.13;5066636;28;20464;-75
2022/02/05 06:24:49;;;;;;;5.20;2.80;;;;;;;2.10;96.58;151905.25;5080988;28;20475;-75
2022/02/05 06:27:25;;;;;;;5.20;3.30;;;;;;;2.07;97.28;151897.53;5083291;28;20478;-75
2022/02/05 06:30:01;;;;;;;4.70;2.70;;;;;;;2.05;96.93;151893.69;5087674;28;20532;-75
2022/02/05 06:32:36;;;;;;;4.90;3.10;;;;;;;2.09;97.46;151903.94;5085763;28;20779;-75
2022/02/05 06:35:12;;;;;;;4.70;3.50;;;;;;;2.13;97.00;151912.97;5087315;28;20478;-75
2022/02/05 06:37:48;;;;;;;3.33;2.53;;;;;;;2.09;95.96;151903.94;5088563;28;20451;-75
2022/02/05 06:40:25;;;;;;;3.93;2.90;;;;;;;2.09;97.68;151903.94;5089686;28;20438;-75
2022/02/05 06:43:01;;;;;;;5.47;2.70;;;;;;;2.10;97.36;151905.25;5084651;28;20470;-75
2022/02/05 06:45:37;;;;;;;4.90;3.10;;;;;;;2.10;98.36;151905.25;5082315;28;20448;-75
2022/02/05 06:48:14;;;;;;;6.20;3.40;;;;;;;2.09;98.28;151903.94;5089302;28;20955;-75
2022/02/05 06:50:50;;;;;;;2.40;2.20;;;;;;;2.09;98.32;151903.94;5090764;28;20450;-75
2022/02/05 06:53:25;;;;;;;3.13;2.80;;;;;;;2.10;98.54;151905.25;5087353;28;20456;-75
2022/02/05 06:56:02;;;;;;;4.73;3.10;;;;;;;2.13;97.93;151914.25;5093660;28;20459;-75
2022/02/05 06:58:38;;;;;;;3.27;2.97;;;;;;;2.12;97.46;151911.69;5085951;28;20802;-76
2022/02/05 07:01:13;;;;;;;4.63;2.67;;;;;;;2.11;97.03;151907.84;5085992;28;20458;-76
2022/02/05 07:03:50;;;;;;;4.10;2.53;;;;;;;2.10;96.44;151906.53;5084179;28;20474;-77
2022/02/05 07:06:25;;;;;;;3.53;2.67;;;;;;;2.10;98.04;151905.25;5085874;28;20495;-77
2022/02/05 07:09:12;;;;;;;4.90;2.40;;;;;;;2.09;98.56;151903.94;5087109;28;20459;-76
2022/02/05 07:11:51;;;;;;;5.43;2.57;;;;;;;2.13;98.09;151914.25;5071818;28;20451;-77
2022/02/05 07:14:33;;;;;;;4.17;2.77;;;;;;;2.14;97.98;151916.84;5086425;28;20456;-76
2022/02/05 07:17:15;;;;;;;3.40;2.77;;;;;;;2.20;98.27;151932.25;5085098;28;20538;-77
2022/02/05 07:20:02;;;;;;;4.13;2.60;;;;;;;2.22;98.16;151937.44;5071629;28;20459;-77
2022/02/05 07:22:51;;;;;;;4.63;2.90;;;;;;;2.22;98.59;151937.44;5078868;28;20494;-77
2022/02/05 07:31:20;;;;;;;7.10;2.70;;;;;;;2.27;97.67;151950.28;5070741;28;20952;-76
2022/02/05 07:33:56;;;;;;;7.70;3.17;;;;;;;2.29;96.94;151954.13;5082282;28;21833;-77
2022/02/05 07:36:32;;;;;;;8.13;3.80;;;;;;;2.33;97.24;151964.44;5083192;28;20453;-76
2022/02/05 07:39:08;;;;;;;10.13;3.10;;;;;;;2.48;97.31;152003.00;5082231;28;20452;-76
2022/02/05 07:41:45;;;;;;;2.73;1.97;;;;;;;2.59;96.19;152030.00;5068096;28;20444;-77
2022/02/05 07:44:22;;;;;;;3.70;2.80;;;;;;;2.74;96.64;152069.88;5059631;28;20524;-77
2022/02/05 07:47:00;;;;;;;4.47;2.90;;;;;;;2.94;95.01;152121.31;5060385;28;20823;-77
2022/02/05 07:49:41;;;;;;;4.77;2.57;;;;;;;3.00;94.51;152135.47;5063407;28;20448;-77
2022/02/05 07:52:28;;;;;;;5.10;2.40;;;;;;;2.86;94.18;152099.47;5076336;28;20481;-77
2022/02/05 07:55:04;;;;;;;3.47;2.90;;;;;;;2.92;94.90;152114.88;5067072;28;20455;-77
2022/02/05 07:57:41;;;;;;;3.73;2.50;;;;;;;3.15;94.31;152174.03;5081973;28;20471;-76
2022/02/05 08:00:18;;;;;;;5.00;2.43;;;;;;;3.25;91.86;152199.81;5083475;28;20448;-77
2022/02/05 08:02:57;;;;;;;3.37;2.47;;;;;;;3.39;92.36;152235.81;5091255;28;20452;-77
2022/02/05 08:05:32;;;;;;;5.20;2.57;;;;;;;3.48;92.37;152259.00;5097444;27;20950;-77
2022/02/05 08:08:11;;;;;;;3.90;2.43;;;;;;;3.49;91.85;152261.59;5084903;28;20456;-76
2022/02/05 08:10:54;;;;;;;5.17;2.57;;;;;;;3.57;90.67;152282.16;5083462;28;20919;-77
2022/02/05 08:13:32;;;;;;;5.27;2.17;;;;;;;3.67;91.29;152307.94;5080822;28;20456;-77
2022/02/05 08:16:26;;;;;;;3.43;2.43;;;;;;;3.69;89.48;152313.09;5078279;28;20448;-76
2022/02/05 08:19:01;;;;;;;2.50;2.00;;;;;;;3.76;89.30;152329.78;5093892;27;20437;-77
2022/02/05 08:21:37;;;;;;;2.33;2.13;;;;;;;3.80;88.05;152338.81;5081272;28;20789;-77
2022/02/05 08:24:12;;;;;;;4.00;2.33;;;;;;;3.69;89.40;152313.09;5084719;28;20507;-76
2022/02/05 08:26:48;;;;;;;2.77;2.13;;;;;;;3.79;89.47;152336.22;5082346;28;20436;-77
2022/02/05 08:29:24;;;;;;;3.20;2.80;;;;;;;3.74;87.05;152323.34;5071715;28;20793;-77
2022/02/05 08:32:01;;;;;;;2.90;2.00;;;;;;;3.75;86.89;152325.94;5084778;28;20440;-77
2022/02/05 08:34:36;;;;;;;2.53;2.03;;;;;;;3.76;86.55;152328.53;5084837;28;20480;-77
2022/02/05 08:37:12;;;;;;;5.10;2.80;;;;;;;3.79;88.22;152336.22;5080935;28;20457;-77
2022/02/05 08:39:47;;;;;;;4.40;2.97;;;;;;;3.84;87.56;152350.41;5082018;28;20802;-77
2022/02/05 08:42:23;;;;;;;6.00;2.90;;;;;;;3.89;87.52;152362.00;5069799;28;20499;-77
2022/02/05 08:44:59;;;;;;;3.87;3.17;;;;;;;3.96;88.21;152380.03;5087100;28;20898;-77
2022/02/05 08:47:35;;;;;;;4.60;2.83;;;;;;;3.98;87.95;152386.47;5085424;28;20555;-77
2022/02/05 08:50:11;;;;;;;3.20;2.30;;;;;;;4.02;88.33;152395.50;5068252;28;20441;-77
2022/02/05 08:52:52;;;;;;;2.77;2.30;;;;;;;3.97;90.26;152382.63;5084997;28;20448;-77
2022/02/05 08:55:31;;;;;;;3.33;2.00;;;;;;;4.06;88.31;152405.78;5067139;28;20480;-78
2022/02/05 08:58:08;;;;;;;2.77;2.30;;;;;;;4.18;87.67;152436.72;5081229;28;20456;-77
2022/02/05 09:00:47;;;;;;;3.10;2.57;;;;;;;4.28;87.51;152462.47;5082351;28;20456;-77
2022/02/05 09:03:30;;;;;;;3.50;2.77;;;;;;;4.38;86.40;152486.91;5090467;28;20449;-77
2022/02/05 09:06:06;;;;;;;5.33;2.70;;;;;;;4.35;86.62;152479.19;5085212;28;20441;-77
2022/02/05 09:08:47;;;;;;;3.87;2.50;;;;;;;4.41;86.53;152495.94;5092121;28;20513;-77
2022/02/05 09:11:34;;;;;;;3.33;2.10;;;;;;;4.41;85.84;152495.94;5083863;28;20453;-77
2022/02/05 09:14:16;;;;;;;3.10;1.80;;;;;;;4.50;86.54;152519.09;5083738;28;20441;-77
2022/02/05 09:16:52;;;;;;;2.23;2.03;;;;;;;4.43;87.15;152499.78;5063638;28;20514;-77
2022/02/05 09:19:33;;;;;;;2.10;1.70;;;;;;;4.50;86.03;152517.84;5086001;28;20441;-77
2022/02/05 09:22:11;;;;;;;3.20;2.10;;;;;;;4.41;84.56;152495.94;5083028;28;20453;-77
2022/02/05 09:24:46;;;;;;;4.50;1.83;;;;;;;4.47;86.64;152510.13;5081286;28;20450;-77
2022/02/05 09:27:22;;;;;;;3.63;2.40;;;;;;;4.42;87.39;152498.50;5063451;28;20456;-77
2022/02/05 09:30:02;;;;;;;4.80;2.27;;;;;;;4.42;88.12;152498.50;5095619;28;20960;-77
2022/02/05 09:32:38;;;;;;;3.93;2.10;;;;;;;4.47;85.83;152511.41;5063189;28;20436;-77
2022/02/05 09:35:15;;;;;;;5.40;1.83;;;;;;;4.43;85.87;152501.09;5080900;28;20491;-77
2022/02/05 09:37:50;;;;;;;4.33;2.27;;;;;;;4.50;84.43;152517.84;5065775;28;20459;-77
2022/02/05 09:40:26;;;;;;;2.27;1.83;;;;;;;4.58;85.18;152539.72;5082709;28;20444;-77
2022/02/05 09:43:02;;;;;;;4.37;2.17;;;;;;;4.70;84.43;152569.38;5060834;28;20506;-77
2022/02/05 09:45:38;;;;;;;3.70;2.20;;;;;;;4.66;85.80;152560.34;5058990;28;20457;-77
2022/02/05 09:48:14;;;;;;;2.97;2.67;;;;;;;4.70;83.89;152570.66;5092328;28;20472;-77
2022/02/05 09:50:51;;;;;;;5.83;2.00;;;;;;;4.72;83.50;152575.81;5084994;28;20444;-77
2022/02/05 09:53:27;;;;;;;2.70;1.60;;;;;;;4.66;86.62;152560.34;5102948;28;20942;-77
2022/02/05 09:56:02;;;;;;;2.10;1.83;;;;;;;4.67;83.23;152562.94;5086919;28;20452;-77
2022/02/05 09:58:38;;;;;;;2.80;1.80;;;;;;;4.80;83.18;152596.44;5068838;28;20449;-77
2022/02/05 10:01:17;;;;;;;2.37;1.70;;;;;;;4.90;83.76;152620.91;5087572;28;20452;-77
2022/02/05 10:03:54;;;;;;;4.07;1.90;;;;;;;4.97;84.77;152638.97;5088676;28;20437;-77
2022/02/05 10:06:39;;;;;;;2.47;2.07;;;;;;;5.02;84.73;152650.56;5068404;28;20492;-78
2022/02/05 10:09:16;;;;;;;2.57;1.47;;;;;;;5.02;83.90;152651.84;5086117;28;20468;-77
2022/02/05 10:11:56;;;;;;;4.20;1.70;;;;;;;5.06;81.76;152662.16;5080959;28;20558;-77
2022/02/05 10:14:34;;;;;;;3.10;1.70;;;;;;;5.09;82.96;152668.59;5087763;28;20440;-77
2022/02/05 10:17:10;;;;;;;2.83;1.90;;;;;;;5.18;83.13;152691.81;5088675;28;20528;-77
2022/02/05 10:19:47;;;;;;;3.73;1.37;;;;;;;5.13;82.82;152678.94;5089002;28;20440;-77
2022/02/05 10:22:35;;;;;;;2.83;1.50;;;;;;;5.13;85.87;152678.94;5080649;28;20513;-77
2022/02/05 10:25:17;;;;;;;3.17;2.17;;;;;;;5.14;82.76;152681.47;5068895;28;20445;-77
2022/02/05 10:27:53;;;;;;;2.10;1.90;;;;;;;5.12;83.07;152676.31;5086042;28;20473;-77
2022/02/05 10:30:30;;;;;;;4.90;1.70;;;;;;;5.10;83.93;152671.19;5064086;28;20453;-77
2022/02/05 10:33:11;;;;;;;3.23;1.53;;;;;;;5.17;83.63;152690.50;5092233;28;20438;-77
2022/02/05 10:35:52;;;;;;;1.83;1.70;;;;;;;5.14;80.32;152681.47;5087077;28;20445;-77
2022/02/05 10:44:16;;;;;;;2.90;1.73;;;;;;;5.28;81.02;152717.59;5085765;28;20510;-77
2022/02/05 10:46:53;;;;;;;1.97;1.47;;;;;;;5.29;81.31;152720.19;5086449;28;20456;-77
2022/02/05 10:49:45;;;;;;;1.80;1.50;;;;;;;5.37;81.36;152740.81;5067750;28;20818;-77
2022/02/05 10:52:30;;;;;;;6.03;1.50;;;;;;;5.42;80.08;152755.00;5067530;28;20790;-77
2022/02/05 10:55:18;;;;;;;4.60;1.50;;;;;;;5.45;77.85;152761.44;5084022;28;20441;-77
2022/02/05 10:58:11;;;;;;;2.20;1.67;;;;;;;5.50;80.75;152775.63;5090038;28;20449;-77
2022/02/05 11:06:46;;;;;;;1.70;1.43;;;;;;;5.47;77.37;152767.88;5009179;28;21002;-77
2022/02/05 11:09:24;;;;;;;3.20;1.33;;;;;;;5.48;81.92;152769.19;5061654;28;20469;-77
2022/02/05 11:15:17;;;;;;;2.60;1.10;;;;;;;5.45;77.08;152762.69;5082217;28;20446;-77
2022/02/05 11:18:08;;;;;;;1.77;0.93;;;;;;;5.56;76.24;152789.75;5083668;28;20441;-77
2022/02/05 11:20:44;;;;;;;2.10;1.43;;;;;;;5.62;75.91;152805.25;5085094;28;20453;-77
2022/02/05 11:23:20;;;;;;;3.37;1.67;;;;;;;5.71;77.56;152828.47;5070669;28;20451;-77
2022/02/05 11:25:58;;;;;;;1.70;1.20;;;;;;;5.75;74.95;152838.78;5068041;28;20453;-77
2022/02/05 11:28:46;;;;;;;2.80;1.27;;;;;;;5.70;74.53;152824.59;5085753;28;20483;-77
2022/02/05 11:31:30;;;;;;;1.50;1.00;;;;;;;5.69;77.02;152823.34;5083286;28;20442;-77
2022/02/05 11:34:21;;;;;;;1.63;0.90;;;;;;;5.70;72.43;152824.59;5085211;28;20481;-77
2022/02/05 11:37:04;;;;;;;5.67;1.10;;;;;;;5.66;75.53;152815.59;5086366;28;20441;-77
2022/02/05 11:39:48;;;;;;;1.83;1.20;;;;;;;5.69;74.35;152822.03;5080753;28;20437;-77
2022/02/05 11:42:25;;;;;;;1.87;1.10;;;;;;;5.63;73.16;152807.84;5086753;28;21038;-77
2022/02/05 11:45:31;;;;;;;2.50;1.33;;;;;;;5.66;73.03;152815.59;5085259;28;20952;-77
2022/02/05 11:48:38;;;;;;;2.30;1.50;;;;;;;5.64;74.92;152810.41;5072347;28;20445;-77
2022/02/05 11:51:17;;;;;;;3.10;1.03;;;;;;;5.57;73.77;152792.38;5077031;28;20433;-77
2022/02/05 11:54:10;;;;;;;2.57;1.47;;;;;;;5.63;78.21;152806.56;5083170;28;20782;-77
2022/02/05 11:56:50;;;;;;;1.70;1.00;;;;;;;5.68;73.74;152820.75;5085513;28;20481;-77
2022/02/05 11:59:27;;;;;;;3.10;1.40;;;;;;;5.71;74.99;152828.47;5072211;28;20459;-77
2022/02/05 12:02:16;;;;;;;2.77;1.40;;;;;;;5.69;73.98;152822.03;5085955;28;20478;-77
2022/02/05 12:05:12;;;;;;;3.07;1.17;;;;;;;5.51;74.40;152778.19;5067175;28;20442;-77
2022/02/05 12:08:00;;;;;;;2.53;0.97;;;;;;;5.58;73.35;152793.66;5067928;28;20450;-77
2022/02/05 12:10:36;;;;;;;1.83;1.13;;;;;;;5.63;76.84;152807.84;5079045;28;20782;-77
2022/02/05 12:13:15;;;;;;;3.30;1.23;;;;;;;5.69;77.68;152823.34;5086037;28;20441;-77
2022/02/05 12:16:20;;;;;;;1.83;1.30;;;;;;;5.67;74.24;152818.16;5077632;28;20446;-77
2022/02/05 12:19:11;;;;;;;3.03;1.20;;;;;;;5.76;75.28;152841.38;5083739;28;20548;-77
2022/02/05 12:21:55;;;;;;;2.20;1.03;;;;;;;5.85;73.71;152864.63;5085484;28;20523;-77
2022/02/05 12:25:13;;;;;;;4.97;1.57;;;;;;;5.82;70.37;152856.88;5097463;28;20489;-77
2022/02/05 12:27:48;;;;;;;2.93;0.80;;;;;;;5.77;72.19;152842.69;5084063;28;20477;-77
2022/02/05 12:30:36;;;;;;;1.50;0.83;;;;;;;5.72;72.52;152831.03;5082332;28;20470;-77
2022/02/05 12:33:12;;;;;;;3.43;1.20;;;;;;;5.75;71.31;152838.78;5084337;28;20449;-77
2022/02/05 12:35:55;;;;;;;1.50;1.10;;;;;;;5.79;73.07;152849.13;5068080;28;20446;-77
2022/02/05 12:38:31;;;;;;;0.90;0.70;;;;;;;5.75;73.29;152838.78;5064775;28;20902;-77
2022/02/05 12:41:07;;;;;;;3.27;1.30;;;;;;;5.75;70.70;152838.78;5049473;28;20454;-77
2022/02/05 12:43:52;;;;;;;2.47;1.13;;;;;;;5.76;76.10;152841.38;5049705;28;20458;-77
2022/02/05 12:46:29;;;;;;;1.90;1.00;;;;;;;5.89;69.23;152874.97;5067611;28;20924;-77
2022/02/05 12:49:10;;;;;;;2.20;1.07;;;;;;;5.92;72.55;152882.69;5066259;28;20568;-77
2022/02/05 12:51:49;;;;;;;2.53;1.10;;;;;;;5.87;74.13;152869.81;5045506;28;20941;-78
2022/02/05 12:54:27;;;;;;;2.10;0.90;;;;;;;5.86;70.89;152867.22;5065858;28;20449;-77
2022/02/05 12:57:03;;;;;;;1.73;1.33;;;;;;;5.92;75.02;152881.41;5063414;28;20532;-77
2022/02/05 12:59:39;;;;;;;3.10;1.10;;;;;;;5.87;71.33;152868.50;5046850;28;20541;-77
2022/02/05 13:02:16;;;;;;;1.53;1.00;;;;;;;5.91;74.21;152880.09;5046071;28;20556;-77
2022/02/05 13:04:53;;;;;;;2.07;1.20;;;;;;;5.86;72.95;152867.22;5072099;28;20576;-77
2022/02/05 13:07:32;;;;;;;1.63;1.20;;;;;;;5.97;71.49;152895.59;5077547;28;20464;-77
2022/02/05 13:10:08;;;;;;;1.43;0.80;;;;;;;6.01;71.61;152905.88;5080346;28;20470;-77
2022/02/05 13:12:43;;;;;;;1.63;0.70;;;;;;;6.06;69.85;152918.78;5060597;28;20809;-77
2022/02/05 13:15:22;;;;;;;1.90;1.17;;;;;;;6.08;70.80;152922.69;5050282;28;20460;-77
2022/02/05 13:18:15;;;;;;;1.43;0.77;;;;;;;6.04;70.49;152912.34;5065818;28;20841;-77
2022/02/05 13:26:52;;;;;;;1.23;0.80;;;;;;;6.04;70.22;152913.63;5055048;28;20503;-77
2022/02/05 13:29:40;;;;;;;1.37;0.80;;;;;;;6.07;67.27;152921.38;5070419;28;20505;-77
2022/02/05 13:35:10;;;;;;;2.10;1.00;;;;;;;6.02;67.79;152907.19;5065754;28;20470;-77
2022/02/05 13:37:52;;;;;;;1.07;0.60;;;;;;;6.05;70.26;152916.25;5089548;28;20447;-77
2022/02/05 13:40:34;;;;;;;1.37;0.90;;;;;;;6.06;67.99;152917.53;5088373;28;20523;-77
2022/02/05 13:43:18;;;;;;;1.13;0.73;;;;;;;6.28;70.08;152972.97;5083152;28;20792;-77
2022/02/05 13:46:10;;;;;;;2.47;0.80;;;;;;;6.10;74.61;152929.13;5097879;28;20433;-77
2022/02/05 13:48:45;;;;;;;1.20;0.67;;;;;;;6.07;74.28;152921.38;5087561;28;20554;-77
2022/02/05 13:51:21;;;;;;;2.03;0.73;;;;;;;6.09;68.38;152926.53;5089199;28;20457;-77
2022/02/05 13:53:57;;;;;;;3.80;0.80;;;;;;;6.19;71.96;152951.06;5085218;28;20449;-77
2022/02/05 13:56:36;;;;;;;2.57;1.00;;;;;;;6.29;69.02;152975.56;5069832;28;21046;-77
2022/02/05 13:59:21;;;;;;;1.10;0.97;;;;;;;6.34;69.47;152989.78;5089249;28;20448;-77
2022/02/05 14:02:12;;;;;;;1.43;0.70;;;;;;;6.49;70.16;153027.16;5103805;28;20456;-77
2022/02/05 14:05:09;;;;;;;3.57;1.00;;;;;;;6.54;67.81;153041.38;5084819;28;20520;-77
2022/02/05 14:07:46;;;;;;;1.27;0.77;;;;;;;6.49;71.32;153027.16;5086677;28;20860;-77
2022/02/05 14:10:23;;;;;;;1.93;0.73;;;;;;;6.50;67.68;153029.75;5084640;28;20972;-77
2022/02/05 14:13:00;;;;;;;1.93;0.83;;;;;;;6.54;67.60;153040.13;5087963;28;20445;-77